createdAt,value
2018-09-05T00:00:19.273Z,15.60
2018-09-05T00:02:48.118Z,15.70
2018-09-05T00:05:16.699Z,15.70
2018-09-05T00:14:46.119Z,15.60
2018-09-05T00:17:14.674Z,15.60
2018-09-05T00:19:43.206Z,15.50
2018-09-05T00:22:11.802Z,15.50
2018-09-05T00:24:40.326Z,15.40
2018-09-05T00:27:08.881Z,15.40
2018-09-05T00:29:37.447Z,15.40
2018-09-05T00:32:06.851Z,15.40
2018-09-05T00:34:35.436Z,15.40
2018-09-05T00:37:04.032Z,15.40
2018-09-05T00:39:32.627Z,15.30
2018-09-05T00:42:02.292Z,15.30
2018-09-05T00:44:30.833Z,15.30
2018-09-05T00:46:59.406Z,15.20
2018-09-05T00:49:27.954Z,15.20
2018-09-05T00:51:56.564Z,15.20
2018-09-05T00:54:27.940Z,15.20
2018-09-05T00:56:56.565Z,15.20
2018-09-05T00:59:25.123Z,15.20
2018-09-05T01:01:53.862Z,15.20
2018-09-05T01:04:22.395Z,15.20
2018-09-05T01:06:51.746Z,15.10
2018-09-05T01:09:20.289Z,15.10
2018-09-05T01:11:48.938Z,15.10
2018-09-05T01:14:17.499Z,15.10
2018-09-05T01:16:46.043Z,15.10
2018-09-05T01:19:14.581Z,15.10
2018-09-05T01:21:43.154Z,15.10
2018-09-05T01:24:11.701Z,15.10
2018-09-05T01:26:40.277Z,15.10
2018-09-05T01:29:08.820Z,15.10
2018-09-05T01:31:37.578Z,15.20
2018-09-05T01:34:06.066Z,15.20
2018-09-05T01:36:34.668Z,15.20
2018-09-05T01:39:03.385Z,15.20
2018-09-05T01:41:31.939Z,15.10
2018-09-05T01:44:00.495Z,15.10
2018-09-05T01:46:29.066Z,15.10
2018-09-05T01:48:57.606Z,15.10
2018-09-05T01:51:26.234Z,15.00
2018-09-05T01:53:54.797Z,15.00
2018-09-05T01:56:23.356Z,15.00
2018-09-05T01:58:51.917Z,15.00
2018-09-05T02:01:20.509Z,14.90
2018-09-05T02:03:49.042Z,14.90
2018-09-05T02:06:17.594Z,14.90
2018-09-05T02:08:46.158Z,14.90
2018-09-05T02:11:18.059Z,14.90
2018-09-05T02:13:47.539Z,14.90
2018-09-05T02:16:22.642Z,15.00
2018-09-05T02:18:51.237Z,14.90
2018-09-05T02:21:19.798Z,14.90
2018-09-05T02:23:48.329Z,14.80
2018-09-05T02:26:16.978Z,14.80
2018-09-05T02:28:45.502Z,14.80
2018-09-05T02:31:14.554Z,14.80
2018-09-05T02:33:43.096Z,14.80
2018-09-05T02:36:11.673Z,14.80
2018-09-05T02:38:40.216Z,14.80
2018-09-05T02:41:08.947Z,14.80
2018-09-05T02:43:42.690Z,14.80
2018-09-05T02:46:11.256Z,14.80
2018-09-05T02:48:40.161Z,14.70
2018-09-05T02:51:08.738Z,14.70
2018-09-05T02:53:37.293Z,14.60
2018-09-05T02:56:05.895Z,14.60
2018-09-05T02:58:35.089Z,14.60
2018-09-05T03:01:03.722Z,14.60
2018-09-05T03:03:32.275Z,14.60
2018-09-05T03:06:00.811Z,14.60
2018-09-05T03:08:29.370Z,14.50
2018-09-05T03:10:57.910Z,14.50
2018-09-05T03:13:26.444Z,14.50
2018-09-05T03:15:55.033Z,14.50
2018-09-05T03:18:23.561Z,14.50
2018-09-05T03:20:52.125Z,14.50
2018-09-05T03:23:20.719Z,14.50
2018-09-05T03:25:49.289Z,14.50
2018-09-05T03:28:17.855Z,14.50
2018-09-05T03:30:46.694Z,14.50
2018-09-05T03:33:15.227Z,14.40
2018-09-05T03:35:43.842Z,14.40
2018-09-05T03:38:12.430Z,14.40
2018-09-05T03:40:41.059Z,14.40
2018-09-05T03:43:09.619Z,14.40
2018-09-05T03:45:38.147Z,14.40
2018-09-05T03:48:06.675Z,14.40
2018-09-05T03:50:35.330Z,14.40
2018-09-05T03:53:03.999Z,14.40
2018-09-05T03:55:32.533Z,14.30
2018-09-05T03:58:01.052Z,14.30
2018-09-05T04:00:34.116Z,14.30
2018-09-05T04:03:03.683Z,14.30
2018-09-05T04:05:32.264Z,14.30
2018-09-05T04:08:00.899Z,14.30
2018-09-05T04:10:29.455Z,14.30
2018-09-05T04:12:58.122Z,14.30
2018-09-05T04:15:27.742Z,14.30
2018-09-05T04:17:56.247Z,14.30
2018-09-05T04:20:24.821Z,14.30
2018-09-05T04:22:53.390Z,14.20
2018-09-05T04:25:21.985Z,14.20
2018-09-05T04:27:50.518Z,14.20
2018-09-05T04:30:19.115Z,14.20
2018-09-05T04:32:47.630Z,14.20
2018-09-05T04:35:16.143Z,14.20
2018-09-05T04:37:44.690Z,14.20
2018-09-05T04:40:13.227Z,14.10
2018-09-05T04:42:42.055Z,14.10
2018-09-05T04:45:10.724Z,14.10
2018-09-05T04:47:39.244Z,14.10
2018-09-05T04:50:07.882Z,14.10
2018-09-05T04:52:36.480Z,14.10
2018-09-05T04:55:05.344Z,14.20
2018-09-05T04:57:33.919Z,14.20
2018-09-05T05:00:02.650Z,14.20
2018-09-05T05:02:31.278Z,14.20
2018-09-05T05:04:59.885Z,14.10
2018-09-05T05:07:28.502Z,14.10
2018-09-05T05:09:57.062Z,14.10
2018-09-05T05:12:25.643Z,14.20
2018-09-05T05:14:54.241Z,14.20
2018-09-05T05:17:22.772Z,14.30
2018-09-05T05:19:51.342Z,14.30
2018-09-05T05:22:20.102Z,14.40
2018-09-05T05:24:48.606Z,14.40
2018-09-05T05:27:17.135Z,14.50
2018-09-05T05:29:45.670Z,14.50
2018-09-05T05:35:13.145Z,14.60
2018-09-05T05:37:41.756Z,14.60
2018-09-05T05:40:10.411Z,14.70
2018-09-05T05:42:38.988Z,14.70
2018-09-05T05:45:07.553Z,14.80
2018-09-05T05:47:36.054Z,14.90
2018-09-05T05:50:04.750Z,15.10
2018-09-05T05:52:33.416Z,15.20
2018-09-05T05:55:02.584Z,15.30
2018-09-05T05:57:31.210Z,15.50
2018-09-05T05:59:59.749Z,15.60
2018-09-05T06:02:28.292Z,15.80
2018-09-05T06:04:56.901Z,16.00
2018-09-05T06:07:25.460Z,16.10
2018-09-05T06:09:54.002Z,16.20
2018-09-05T06:12:42.497Z,16.30
2018-09-05T06:15:11.038Z,16.40
2018-09-05T06:17:39.690Z,16.40
2018-09-05T06:20:08.245Z,16.50
2018-09-05T06:22:37.043Z,16.60
2018-09-05T06:25:05.655Z,16.70
2018-09-05T06:27:34.250Z,16.90
2018-09-05T06:30:02.807Z,17.10
2018-09-05T06:32:31.281Z,17.20
2018-09-05T06:34:59.918Z,17.40
2018-09-05T06:37:28.460Z,17.40
2018-09-05T06:39:57.006Z,17.50
2018-09-05T06:42:25.639Z,17.60
2018-09-05T06:44:54.186Z,17.60
2018-09-05T06:47:22.700Z,17.80
2018-09-05T06:49:51.269Z,17.90
2018-09-05T06:52:19.865Z,18.20
2018-09-05T06:54:48.491Z,18.60
2018-09-05T06:57:17.118Z,19.40
2018-09-05T06:59:46.062Z,20.80
2018-09-05T07:02:14.630Z,22.30
2018-09-05T07:04:43.191Z,23.60
2018-09-05T07:07:11.786Z,24.40
2018-09-05T07:09:40.339Z,25.20
2018-09-05T07:12:08.939Z,26.00
2018-09-05T07:14:37.513Z,26.20
2018-09-05T07:17:06.315Z,26.70
2018-09-05T07:19:34.866Z,27.50
2018-09-05T07:22:03.482Z,27.90
2018-09-05T07:24:31.984Z,28.50
2018-09-05T07:27:00.571Z,29.00
2018-09-05T07:30:32.047Z,29.50
2018-09-05T07:33:00.618Z,30.30
2018-09-05T07:35:29.168Z,31.10
2018-09-05T07:37:57.755Z,31.70
2018-09-05T07:40:26.387Z,32.00
2018-09-05T07:42:54.963Z,32.40
2018-09-05T07:45:23.499Z,32.40
2018-09-05T07:47:52.085Z,32.70
2018-09-05T07:50:20.655Z,32.80
2018-09-05T07:52:49.362Z,33.30
2018-09-05T07:55:17.955Z,33.90
2018-09-05T07:57:46.491Z,34.70
2018-09-05T08:00:15.115Z,35.50
2018-09-05T08:02:43.663Z,35.80
2018-09-05T08:05:18.660Z,35.70
2018-09-05T08:07:47.250Z,35.40
2018-09-05T08:10:15.939Z,35.30
2018-09-05T08:12:44.484Z,35.60
2018-09-05T08:15:13.050Z,35.70
2018-09-05T08:17:41.582Z,36.30
2018-09-05T08:20:10.151Z,36.60
2018-09-05T08:22:38.789Z,37.50
2018-09-05T08:25:07.590Z,36.90
2018-09-05T08:27:36.171Z,37.10
2018-09-05T08:30:04.814Z,38.20
2018-09-05T08:32:33.300Z,39.60
2018-09-05T08:35:02.004Z,40.30
2018-09-05T08:37:30.654Z,40.80
2018-09-05T08:39:59.051Z,41.70
2018-09-05T08:42:31.894Z,42.30
2018-09-05T08:45:02.382Z,42.30
2018-09-05T08:47:31.439Z,42.60
2018-09-05T08:50:00.922Z,43.40
2018-09-05T08:52:29.810Z,43.40
2018-09-05T08:54:58.502Z,43.30
2018-09-05T08:57:27.090Z,43.50
2018-09-05T08:59:55.664Z,43.00
2018-09-05T09:02:24.233Z,43.10
2018-09-05T09:04:53.592Z,43.20
2018-09-05T09:07:22.832Z,43.90
2018-09-05T09:09:51.423Z,44.60
2018-09-05T09:12:20.466Z,44.00
2018-09-05T09:14:49.039Z,44.90
2018-09-05T09:17:17.575Z,45.20
2018-09-05T09:19:46.148Z,45.70
2018-09-05T09:22:14.682Z,46.00
2018-09-05T09:24:43.349Z,45.10
2018-09-05T09:27:11.954Z,45.70
2018-09-05T09:29:41.134Z,46.00
2018-09-05T09:32:09.690Z,46.10
2018-09-05T09:34:38.266Z,46.20
2018-09-05T09:37:06.880Z,45.90
2018-09-05T09:39:35.466Z,46.50
2018-09-05T09:42:04.370Z,46.50
2018-09-05T09:44:32.929Z,46.50
2018-09-05T09:47:01.809Z,46.30
2018-09-05T09:49:30.413Z,46.90
2018-09-05T09:52:04.233Z,46.80
2018-09-05T09:54:32.761Z,47.20
2018-09-05T09:57:01.744Z,46.60
2018-09-05T09:59:30.334Z,46.90
2018-09-05T10:02:04.094Z,47.30
2018-09-05T10:04:37.903Z,45.60
2018-09-05T10:09:19.389Z,44.90
2018-09-05T10:11:53.301Z,45.50
2018-09-05T10:14:27.092Z,43.20
2018-09-05T10:17:01.115Z,39.90
2018-09-05T10:19:29.673Z,39.90
2018-09-05T10:21:58.341Z,41.50
2018-09-05T10:24:26.963Z,43.30
2018-09-05T10:26:55.532Z,44.10
2018-09-05T10:29:24.107Z,43.80
2018-09-05T10:31:52.753Z,42.70
2018-09-05T10:34:21.354Z,43.30
2018-09-05T10:36:49.893Z,44.00
2018-09-05T10:39:18.493Z,44.60
2018-09-05T10:41:47.031Z,44.70
2018-09-05T10:44:15.617Z,44.20
2018-09-05T10:46:44.210Z,44.20
2018-09-05T10:49:12.748Z,44.60
2018-09-05T10:51:46.733Z,44.80
2018-09-05T10:54:15.287Z,44.20
2018-09-05T10:56:43.830Z,43.90
2018-09-05T10:59:12.367Z,42.80
2018-09-05T11:01:40.970Z,43.50
2018-09-05T11:04:09.546Z,44.00
2018-09-05T11:06:38.125Z,43.90
2018-09-05T11:09:09.202Z,44.00
2018-09-05T11:11:37.974Z,44.00
2018-09-05T11:14:07.123Z,44.50
2018-09-05T11:16:35.770Z,44.90
2018-09-05T11:19:04.409Z,44.30
2018-09-05T11:21:32.951Z,43.60
2018-09-05T11:24:01.522Z,42.40
2018-09-05T11:26:30.103Z,42.00
2018-09-05T11:28:59.344Z,41.70
2018-09-05T11:31:28.142Z,41.10
2018-09-05T11:33:56.703Z,41.00
2018-09-05T11:36:25.507Z,41.20
2018-09-05T11:38:54.082Z,40.50
2018-09-05T11:41:22.757Z,40.00
2018-09-05T11:43:51.530Z,39.50
2018-09-05T11:46:20.128Z,38.30
2018-09-05T11:48:48.680Z,36.90
2018-09-05T11:51:17.250Z,35.30
2018-09-05T11:53:45.800Z,34.40
2018-09-05T11:56:14.391Z,33.50
2018-09-05T11:58:42.940Z,33.10
2018-09-05T12:01:11.522Z,33.00
2018-09-05T12:03:40.081Z,31.90
2018-09-05T12:06:08.652Z,31.40
2018-09-05T12:08:37.234Z,31.60
2018-09-05T12:11:05.815Z,31.70
2018-09-05T12:13:34.362Z,31.90
2018-09-05T12:16:02.936Z,32.10
2018-09-05T12:18:31.632Z,32.10
2018-09-05T12:21:00.124Z,31.40
2018-09-05T12:23:28.733Z,31.30
2018-09-05T12:25:57.374Z,31.40
2018-09-05T12:28:26.614Z,31.80
2018-09-05T12:30:55.182Z,31.90
2018-09-05T12:33:23.721Z,31.90
2018-09-05T12:35:52.264Z,32.10
2018-09-05T12:38:20.788Z,31.90
2018-09-05T12:40:49.400Z,31.00
2018-09-05T12:43:17.926Z,30.40
2018-09-05T12:45:46.479Z,29.90
2018-09-05T12:48:15.117Z,29.50
2018-09-05T12:50:43.696Z,29.50
2018-09-05T12:53:12.233Z,29.60
2018-09-05T12:55:40.800Z,30.10
2018-09-05T12:58:09.587Z,30.70
2018-09-05T13:00:38.245Z,31.20
2018-09-05T13:03:06.791Z,31.30
2018-09-05T13:05:35.323Z,31.30
2018-09-05T13:08:03.870Z,31.50
2018-09-05T13:10:33.384Z,31.70
2018-09-05T13:13:01.952Z,31.80
2018-09-05T13:15:30.572Z,32.00
2018-09-05T13:17:59.138Z,32.10
2018-09-05T13:20:27.673Z,31.90
2018-09-05T13:22:56.299Z,31.30
2018-09-05T13:25:24.844Z,30.80
2018-09-05T13:27:53.377Z,30.10
2018-09-05T13:30:21.954Z,29.60
2018-09-05T13:32:50.534Z,29.30
2018-09-05T13:35:19.133Z,29.20
2018-09-05T13:37:47.671Z,29.50
2018-09-05T13:40:16.247Z,30.10
2018-09-05T13:42:45.099Z,30.40
2018-09-05T13:45:13.756Z,30.80
2018-09-05T13:47:42.296Z,31.40
2018-09-05T13:50:10.863Z,31.90
2018-09-05T13:52:39.421Z,32.30
2018-09-05T13:55:07.983Z,32.60
2018-09-05T13:57:36.512Z,32.80
2018-09-05T14:00:05.234Z,32.90
2018-09-05T14:02:33.823Z,32.70
2018-09-05T14:05:02.374Z,32.30
2018-09-05T14:07:30.934Z,32.00
2018-09-05T14:09:59.489Z,31.70
2018-09-05T14:12:28.038Z,31.60
2018-09-05T14:14:56.559Z,31.40
2018-09-05T14:17:25.107Z,31.00
2018-09-05T14:20:14.274Z,30.70
2018-09-05T14:22:42.846Z,30.60
2018-09-05T14:25:11.345Z,30.70
2018-09-05T14:27:39.979Z,30.70
2018-09-05T14:30:09.123Z,30.90
2018-09-05T14:32:37.655Z,31.00
2018-09-05T14:35:06.226Z,30.90
2018-09-05T14:37:34.799Z,30.80
2018-09-05T14:40:03.408Z,30.70
2018-09-05T14:42:31.944Z,30.60
2018-09-05T14:45:00.491Z,30.40
2018-09-05T14:47:29.062Z,30.00
2018-09-05T14:49:57.605Z,29.70
2018-09-05T14:52:26.146Z,29.50
2018-09-05T14:54:54.707Z,29.40
2018-09-05T14:57:23.237Z,29.30
2018-09-05T14:59:51.897Z,29.20
2018-09-05T15:02:20.633Z,29.20
2018-09-05T15:04:49.249Z,29.00
2018-09-05T15:07:17.868Z,28.80
2018-09-05T15:09:46.389Z,28.80
2018-09-05T15:12:14.979Z,28.80
2018-09-05T15:14:43.551Z,28.70
2018-09-05T15:17:12.187Z,28.60
2018-09-05T15:19:40.726Z,28.60
2018-09-05T15:22:09.460Z,28.70
2018-09-05T15:24:38.628Z,28.60
2018-09-05T15:27:07.249Z,28.40
2018-09-05T15:29:35.819Z,28.30
2018-09-05T15:32:04.402Z,28.30
2018-09-05T15:34:32.952Z,28.20
2018-09-05T15:37:01.542Z,28.20
2018-09-05T15:39:30.118Z,28.10
2018-09-05T15:41:58.677Z,27.90
2018-09-05T15:44:27.479Z,27.80
2018-09-05T15:46:56.039Z,27.70
2018-09-05T15:49:24.594Z,27.60
2018-09-05T15:51:55.853Z,27.50
2018-09-05T15:54:25.559Z,27.40
2018-09-05T15:56:54.092Z,27.30
2018-09-05T15:59:23.261Z,27.30
2018-09-05T16:01:52.388Z,27.30
2018-09-05T16:04:20.886Z,27.40
2018-09-05T16:06:49.471Z,27.40
2018-09-05T16:09:18.006Z,27.30
2018-09-05T16:11:46.577Z,27.30
2018-09-05T16:14:15.145Z,27.20
2018-09-05T16:16:43.698Z,27.10
2018-09-05T16:19:12.268Z,27.10
2018-09-05T16:21:40.895Z,27.10
2018-09-05T16:24:09.418Z,27.00
2018-09-05T16:26:37.943Z,27.00
2018-09-05T16:29:06.510Z,26.80
2018-09-05T16:31:35.053Z,26.80
2018-09-05T16:34:03.646Z,26.70
2018-09-05T16:36:32.259Z,26.60
2018-09-05T16:39:00.798Z,26.50
2018-09-05T16:41:29.359Z,26.50
2018-09-05T16:43:57.901Z,26.40
2018-09-05T16:46:26.490Z,26.40
2018-09-05T16:48:55.028Z,26.30
2018-09-05T16:51:24.471Z,26.20
2018-09-05T16:53:53.043Z,26.10
2018-09-05T16:56:21.678Z,25.90
2018-09-05T16:58:50.290Z,25.90
2018-09-05T17:01:18.825Z,25.80
2018-09-05T17:03:47.352Z,25.70
2018-09-05T17:06:15.927Z,25.70
2018-09-05T17:08:44.534Z,25.60
2018-09-05T17:11:13.109Z,25.50
2018-09-05T17:13:41.646Z,25.50
2018-09-05T17:16:10.201Z,25.40
2018-09-05T17:18:38.825Z,25.30
2018-09-05T17:21:07.581Z,25.30
2018-09-05T17:23:36.150Z,25.10
2018-09-05T17:26:04.690Z,25.00
2018-09-05T17:28:33.593Z,24.80
2018-09-05T17:31:02.106Z,24.50
2018-09-05T17:33:30.647Z,24.30
2018-09-05T17:35:59.234Z,24.10
2018-09-05T17:38:27.781Z,23.90
2018-09-05T17:40:56.349Z,23.80
2018-09-05T17:43:24.920Z,23.70
2018-09-05T17:45:53.467Z,23.60
2018-09-05T17:48:21.988Z,23.50
2018-09-05T17:50:50.619Z,23.40
2018-09-05T17:53:19.182Z,23.30
2018-09-05T17:55:47.917Z,23.20
2018-09-05T17:58:16.474Z,23.10
2018-09-05T18:00:45.007Z,22.90
2018-09-05T18:03:13.548Z,22.80
2018-09-05T18:05:42.125Z,22.70
2018-09-05T18:08:10.764Z,22.50
2018-09-05T18:10:39.253Z,22.40
2018-09-05T18:13:07.833Z,22.30
2018-09-05T18:15:36.371Z,22.20
2018-09-05T18:18:04.989Z,22.20
2018-09-05T18:20:33.622Z,22.10
2018-09-05T18:23:02.780Z,22.00
2018-09-05T18:25:31.363Z,21.80
2018-09-05T18:27:59.978Z,21.70
2018-09-05T18:30:29.278Z,21.60
2018-09-05T18:32:57.857Z,21.50
2018-09-05T18:35:26.385Z,21.40
2018-09-05T18:37:54.939Z,21.30
2018-09-05T18:40:23.487Z,21.20
2018-09-05T18:42:52.061Z,21.10
2018-09-05T18:45:20.591Z,21.10
2018-09-05T18:47:49.127Z,21.10
2018-09-05T18:50:17.785Z,21.00
2018-09-05T18:52:46.341Z,21.00
2018-09-05T18:55:14.894Z,20.90
2018-09-05T18:57:43.470Z,20.80
2018-09-05T19:00:12.007Z,20.70
2018-09-05T19:02:40.566Z,20.70
2018-09-05T19:05:09.155Z,20.70
2018-09-05T19:07:37.690Z,20.70
2018-09-05T19:10:06.398Z,20.60
2018-09-05T19:12:34.965Z,20.60
2018-09-05T19:15:03.546Z,20.60
2018-09-05T19:17:32.074Z,20.60
2018-09-05T19:20:00.663Z,20.50
2018-09-05T19:22:29.301Z,20.50
2018-09-05T19:24:57.830Z,20.40
2018-09-05T19:27:26.391Z,20.40
2018-09-05T19:29:54.950Z,20.30
2018-09-05T19:32:23.503Z,20.30
2018-09-05T19:34:52.061Z,20.20
2018-09-05T19:37:20.673Z,20.20
2018-09-05T19:39:49.217Z,20.20
2018-09-05T19:42:17.788Z,20.10
2018-09-05T19:44:46.355Z,20.10
2018-09-05T19:47:15.057Z,20.10
2018-09-05T19:49:44.038Z,20.10
2018-09-05T19:52:12.564Z,20.00
2018-09-05T19:54:41.846Z,20.00
2018-09-05T19:57:10.402Z,19.90
2018-09-05T19:59:39.594Z,19.90
2018-09-05T20:02:08.129Z,19.90
2018-09-05T20:04:36.726Z,19.90
2018-09-05T20:07:05.310Z,19.90
2018-09-05T20:09:33.831Z,19.80
2018-09-05T20:12:02.394Z,19.80
2018-09-05T20:14:30.953Z,19.80
2018-09-05T20:16:59.951Z,19.80
2018-09-05T20:19:28.510Z,19.70
2018-09-05T20:21:57.071Z,19.70
2018-09-05T20:24:25.638Z,19.70
2018-09-05T20:26:54.250Z,19.60
2018-09-05T20:29:23.392Z,19.60
2018-09-05T20:31:51.922Z,19.50
2018-09-05T20:37:19.587Z,19.40
2018-09-05T20:39:48.181Z,19.30
2018-09-05T20:42:16.725Z,19.30
2018-09-05T20:44:46.222Z,19.30
2018-09-05T20:47:14.791Z,19.30
2018-09-05T20:49:43.311Z,19.20
2018-09-05T20:52:11.894Z,19.20
2018-09-05T20:54:40.434Z,19.20
2018-09-05T20:57:09.000Z,19.20
2018-09-05T20:59:37.560Z,19.20
2018-09-05T21:02:06.206Z,19.10
2018-09-05T21:07:33.821Z,19.10
2018-09-05T21:10:02.343Z,19.00
2018-09-05T21:12:30.910Z,19.00
2018-09-05T21:14:59.527Z,18.90
2018-09-05T21:17:28.133Z,18.90
2018-09-05T21:19:56.706Z,18.80
2018-09-05T21:22:25.307Z,18.80
2018-09-05T21:24:53.826Z,18.80
2018-09-05T21:27:22.402Z,18.70
2018-09-05T21:29:50.982Z,18.70
2018-09-05T21:32:19.574Z,18.60
2018-09-05T21:34:48.134Z,18.60
2018-09-05T21:37:16.706Z,18.60
2018-09-05T21:39:45.259Z,18.60
2018-09-05T21:42:13.999Z,18.60
2018-09-05T21:44:42.589Z,18.60
2018-09-05T21:47:11.114Z,18.50
2018-09-05T21:49:39.649Z,18.50
2018-09-05T21:52:08.278Z,18.40
2018-09-05T21:54:36.802Z,18.30
2018-09-05T21:57:05.359Z,18.30
2018-09-05T21:59:33.965Z,18.20
2018-09-05T22:02:02.538Z,18.30
2018-09-05T22:04:31.081Z,18.20
2018-09-05T22:06:59.634Z,18.30
2018-09-05T22:09:28.166Z,18.30
2018-09-05T22:11:56.722Z,18.20
2018-09-05T22:14:25.284Z,18.20
2018-09-05T22:16:53.847Z,18.20
2018-09-05T22:19:22.406Z,18.20
2018-09-05T22:21:50.957Z,18.10
2018-09-05T22:24:19.477Z,18.10
2018-09-05T22:26:48.022Z,18.00
2018-09-05T22:29:16.614Z,18.00
2018-09-05T22:31:45.212Z,18.00
2018-09-05T22:34:13.782Z,18.00
2018-09-05T22:36:42.364Z,18.00
2018-09-05T22:39:11.287Z,17.90
2018-09-05T22:41:39.851Z,17.90
2018-09-05T22:44:19.510Z,17.90
2018-09-05T22:46:59.113Z,17.80
2018-09-05T22:49:42.859Z,17.80
2018-09-05T22:52:27.307Z,17.80
2018-09-05T22:59:18.847Z,17.80
2018-09-05T23:04:04.075Z,17.80
2018-09-05T23:06:45.715Z,17.70
2018-09-05T23:09:14.306Z,17.70
2018-09-05T23:11:57.509Z,17.60
2018-09-05T23:14:39.066Z,17.60
2018-09-05T23:17:19.113Z,17.50
2018-09-05T23:21:01.148Z,17.50
2018-09-05T23:23:41.393Z,17.50
2018-09-05T23:26:10.048Z,17.50
2018-09-05T23:28:39.350Z,17.40
2018-09-05T23:31:07.912Z,17.40
2018-09-05T23:33:36.828Z,17.40
2018-09-05T23:36:05.902Z,17.30
2018-09-05T23:38:34.493Z,17.30
2018-09-05T23:41:03.135Z,17.30
2018-09-05T23:43:31.694Z,17.30
2018-09-05T23:46:00.231Z,17.30
2018-09-05T23:48:28.826Z,17.20
2018-09-05T23:50:57.355Z,17.20
2018-09-05T23:53:26.122Z,17.10
2018-09-05T23:55:54.744Z,17.10
2018-09-05T23:58:23.875Z,17.10
